Time;durP1;ratioP1;P1;durP2;ratioP2;P2;SDS_P1;SDS_P2;PMS_P1;PMS_P2;Temp;Humidity;BMP_temperature;BMP_pressure;BME280_temperature;BME280_humidity;BME280_pressure;Samples;Min_cycle;Max_cycle;Signal;HPM_P1;HPM_P2
2023/03/11 00:00:15;;;;;;;1.43;1.20;;;;;;;4.03;65.18;97615.66;5074917;28;41443;-83
2023/03/11 00:02:43;;;;;;;1.00;1.00;;;;;;;4.08;66.10;97624.09;5075312;28;39123;-84
2023/03/11 00:05:16;;;;;;;1.10;1.07;;;;;;;3.97;64.51;97607.19;5075086;28;40644;-83
2023/03/11 00:07:44;;;;;;;0.97;0.97;;;;;;;4.04;64.74;97638.28;5070788;28;42599;-84
2023/03/11 00:10:15;;;;;;;1.17;0.90;;;;;;;4.01;65.00;97628.81;5075463;28;41373;-83
2023/03/11 00:12:44;;;;;;;0.80;0.80;;;;;;;3.89;64.85;97609.41;5074679;28;39772;-85
2023/03/11 00:15:13;;;;;;;0.93;0.93;;;;;;;4.01;64.90;97627.97;5072241;28;40589;-84
2023/03/11 00:17:42;;;;;;;1.80;0.90;;;;;;;3.99;64.65;97643.78;5074950;28;41932;-84
2023/03/11 00:20:18;;;;;;;1.10;1.00;;;;;;;3.82;64.76;97618.53;5074993;28;42350;-84
2023/03/11 00:22:46;;;;;;;0.97;0.97;;;;;;;3.88;64.76;97628.66;5072016;28;38835;-85
2023/03/11 00:25:15;;;;;;;1.27;0.90;;;;;;;4.01;65.07;97664.66;5074824;28;40736;-85
2023/03/11 00:27:44;;;;;;;1.13;1.03;;;;;;;4.02;65.09;97667.19;5074468;28;41760;-85
2023/03/11 00:30:13;;;;;;;0.80;0.70;;;;;;;4.01;64.69;97667.25;5074962;28;41451;-84
2023/03/11 00:32:41;;;;;;;0.70;0.70;;;;;;;3.93;64.62;97671.16;5069979;28;38791;-83
2023/03/11 00:35:14;;;;;;;1.00;1.00;;;;;;;3.94;64.64;97658.91;5074739;28;41608;-84
2023/03/11 00:37:42;;;;;;;0.73;0.73;;;;;;;3.87;64.65;97658.38;5091098;28;42690;-81
2023/03/11 00:40:12;;;;;;;1.07;0.80;;;;;;;3.94;64.88;97670.25;5074542;28;41137;-84
2023/03/11 00:42:40;;;;;;;0.67;0.67;;;;;;;3.85;65.32;97644.53;5091602;28;38911;-84
2023/03/11 00:45:10;;;;;;;0.80;0.80;;;;;;;3.57;65.96;97607.72;5074982;28;41870;-84
2023/03/11 00:47:38;;;;;;;0.80;0.80;;;;;;;3.85;65.84;97656.78;5072551;28;42154;-85
2023/03/11 00:50:07;;;;;;;0.80;0.80;;;;;;;3.88;66.18;97665.31;5074536;28;41486;-84
2023/03/11 00:52:34;;;;;;;1.30;1.20;;;;;;;3.92;66.37;97686.97;5073897;28;39996;-84
2023/03/11 00:55:02;;;;;;;1.10;1.00;;;;;;;3.82;66.57;97657.81;5074598;28;41531;-84
2023/03/11 00:57:30;;;;;;;0.90;0.90;;;;;;;3.76;66.33;97655.50;5074355;28;41869;-86
2023/03/11 00:59:59;;;;;;;1.07;0.97;;;;;;;3.94;66.39;97691.19;5074066;28;41025;-83
2023/03/11 01:02:29;;;;;;;0.93;0.93;;;;;;;3.86;66.57;97669.78;5074173;28;38812;-84
2023/03/11 01:04:56;;;;;;;1.10;1.00;;;;;;;3.98;66.94;97697.94;5074168;28;40724;-84
2023/03/11 01:07:24;;;;;;;0.90;0.90;;;;;;;3.90;67.08;97663.47;5078165;28;42201;-83
2023/03/11 01:09:52;;;;;;;0.90;0.90;;;;;;;3.90;67.24;97676.56;5077702;28;41339;-85
2023/03/11 01:12:19;;;;;;;1.73;1.10;;;;;;;3.98;67.47;97684.84;5074837;28;39827;-85
2023/03/11 01:14:47;;;;;;;0.93;0.93;;;;;;;3.88;67.81;97677.56;5078128;28;40599;-83
2023/03/11 01:17:15;;;;;;;1.20;1.20;;;;;;;3.78;68.08;97658.06;5078014;28;41318;-84
2023/03/11 01:19:44;;;;;;;1.00;1.00;;;;;;;3.84;68.19;97669.03;5077941;28;41191;-84
2023/03/11 01:22:12;;;;;;;1.00;1.00;;;;;;;3.76;68.41;97666.00;5073354;28;40155;-83
2023/03/11 01:24:40;;;;;;;0.80;0.80;;;;;;;3.93;68.55;97694.75;5077694;28;41027;-84
2023/03/11 01:27:08;;;;;;;0.90;0.90;;;;;;;3.92;68.41;97702.66;5077797;28;41860;-84
2023/03/11 01:29:36;;;;;;;1.03;0.83;;;;;;;3.84;68.62;97683.88;5077475;28;41221;-85
2023/03/11 01:32:05;;;;;;;0.80;0.80;;;;;;;3.84;68.94;97683.88;5077533;28;39590;-85
2023/03/11 01:34:34;;;;;;;0.90;0.90;;;;;;;3.84;68.86;97694.38;5077512;28;40741;-85
2023/03/11 01:37:04;;;;;;;0.80;0.80;;;;;;;3.88;68.88;97704.59;5074325;28;42720;-81
2023/03/11 01:39:32;;;;;;;1.07;1.00;;;;;;;3.76;68.23;97692.16;5077435;28;41499;-86
2023/03/11 01:41:59;;;;;;;1.57;0.90;;;;;;;3.74;68.40;97704.50;5076989;28;38868;-84
2023/03/11 01:44:27;;;;;;;1.07;0.97;;;;;;;3.71;68.82;97704.66;5077737;28;41590;-84
2023/03/11 01:47:34;;;;;;;0.83;0.83;;;;;;;3.80;68.52;97732.97;5072698;28;42024;-84
2023/03/11 01:50:03;;;;;;;0.90;0.90;;;;;;;3.78;68.96;97726.13;5076721;28;41382;-86
2023/03/11 01:52:33;;;;;;;1.00;0.90;;;;;;;3.69;67.81;97735.31;5077523;28;40240;-84
2023/03/11 01:55:01;;;;;;;1.00;1.00;;;;;;;3.74;67.59;97730.69;5076884;28;40726;-85
2023/03/11 01:57:29;;;;;;;0.90;0.90;;;;;;;3.68;67.35;97727.56;5077458;28;42701;-84
2023/03/11 02:00:00;;;;;;;0.77;0.73;;;;;;;3.71;68.13;97725.59;5075232;28;41144;-85
2023/03/11 02:02:32;;;;;;;1.07;1.07;;;;;;;3.62;68.06;97713.00;5078801;28;39538;-83
2023/03/11 02:05:02;;;;;;;1.10;0.93;;;;;;;3.65;68.41;97725.94;5076529;28;41838;-86
2023/03/11 02:07:30;;;;;;;1.83;1.00;;;;;;;3.68;67.65;97724.94;5077581;28;42944;-84
2023/03/11 02:10:00;;;;;;;0.97;0.90;;;;;;;3.59;67.79;97714.00;5074626;28;42669;-84
2023/03/11 02:12:34;;;;;;;0.80;0.80;;;;;;;3.68;67.66;97738.88;5077115;28;38759;-85
2023/03/11 02:15:03;;;;;;;1.07;0.93;;;;;;;3.59;67.92;97721.84;5076017;28;41522;-84
2023/03/11 02:17:31;;;;;;;1.27;0.90;;;;;;;3.67;67.65;97744.19;5076534;28;41671;-85
2023/03/11 02:20:16;;;;;;;2.00;1.03;;;;;;;3.60;67.42;97733.16;5079499;28;41126;-83
2023/03/11 02:22:45;;;;;;;1.20;1.03;;;;;;;3.46;67.67;97714.75;5088103;28;39100;-84
2023/03/11 02:25:25;;;;;;;1.37;1.00;;;;;;;3.60;67.38;97741.03;5108632;28;41823;-85
2023/03/11 02:27:55;;;;;;;1.20;1.10;;;;;;;3.55;67.61;97740.44;5077273;28;41740;-83
2023/03/11 02:30:27;;;;;;;2.50;1.10;;;;;;;3.55;67.36;97745.66;5076683;28;40916;-83
2023/03/11 02:32:56;;;;;;;1.50;1.20;;;;;;;3.65;67.71;97757.34;5077267;28;38937;-83
2023/03/11 02:35:25;;;;;;;1.90;0.90;;;;;;;3.50;67.38;97742.44;5076322;28;40970;-84
2023/03/11 02:37:55;;;;;;;1.20;0.93;;;;;;;3.62;67.54;97757.50;5077039;28;41716;-84
2023/03/11 02:40:50;;;;;;;1.50;0.83;;;;;;;3.68;67.71;97766.81;5076346;28;41570;-83
2023/03/11 02:43:25;;;;;;;1.40;0.90;;;;;;;3.63;67.23;97769.66;5077190;28;38930;-84
2023/03/11 02:45:54;;;;;;;0.73;0.73;;;;;;;3.58;66.70;97769.06;5093635;28;40491;-84
2023/03/11 02:48:23;;;;;;;0.90;0.90;;;;;;;3.51;66.90;97759.84;5076816;28;41886;-85
2023/03/11 02:50:52;;;;;;;0.70;0.70;;;;;;;3.50;66.55;97760.75;5075944;28;41605;-84
2023/03/11 02:53:20;;;;;;;2.23;1.30;;;;;;;3.53;66.54;97768.47;5076664;28;39205;-84
2023/03/11 02:55:48;;;;;;;1.57;0.80;;;;;;;3.57;66.49;97770.00;5076349;28;43305;-84
2023/03/11 02:58:16;;;;;;;1.57;0.90;;;;;;;3.46;66.23;97760.06;5076307;28;41830;-83
2023/03/11 03:00:45;;;;;;;1.67;0.63;;;;;;;3.47;65.19;97779.22;5076162;28;41222;-82
2023/03/11 03:03:14;;;;;;;1.30;0.80;;;;;;;3.52;65.59;97785.09;5076212;28;39003;-82
2023/03/11 03:05:42;;;;;;;2.27;0.90;;;;;;;3.47;66.05;97781.84;5092987;28;41911;-84
2023/03/11 03:08:10;;;;;;;0.70;0.70;;;;;;;3.47;66.11;97790.53;5076018;28;41515;-83
2023/03/11 03:10:39;;;;;;;2.60;1.00;;;;;;;3.39;66.09;97776.16;5075533;28;41343;-84
2023/03/11 03:13:07;;;;;;;0.80;0.80;;;;;;;3.56;66.19;97797.09;5076181;28;39153;-83
2023/03/11 03:15:35;;;;;;;1.30;1.20;;;;;;;3.46;66.24;97793.25;5075605;28;41347;-85
2023/03/11 03:18:05;;;;;;;2.00;0.90;;;;;;;3.42;65.94;97794.34;5076140;28;43362;-84
2023/03/11 03:20:33;;;;;;;0.90;0.80;;;;;;;3.46;66.35;97809.78;5075462;28;41875;-83
2023/03/11 03:23:03;;;;;;;1.67;0.80;;;;;;;3.50;66.52;97813.09;5075734;28;40217;-83
2023/03/11 03:25:33;;;;;;;1.27;1.00;;;;;;;3.41;66.27;97800.50;5059369;28;40343;-83
2023/03/11 03:28:05;;;;;;;1.27;0.83;;;;;;;3.40;66.65;97801.41;5088984;28;42636;-84
2023/03/11 03:30:36;;;;;;;1.23;0.90;;;;;;;3.06;66.92;97739.50;5090573;28;42710;-84
2023/03/11 03:33:07;;;;;;;1.17;0.83;;;;;;;3.54;67.16;97817.25;5092549;28;39608;-83
2023/03/11 03:35:35;;;;;;;1.10;0.80;;;;;;;3.52;67.22;97816.50;5075341;28;40562;-81
2023/03/11 03:38:07;;;;;;;4.37;1.00;;;;;;;3.40;66.90;97809.25;5075987;28;41191;-83
2023/03/11 03:40:36;;;;;;;1.23;0.90;;;;;;;3.42;67.04;97823.13;5075078;28;41326;-83
2023/03/11 03:43:06;;;;;;;3.13;1.20;;;;;;;3.43;67.21;97830.03;5075688;28;39017;-83
2023/03/11 03:45:35;;;;;;;2.80;0.90;;;;;;;3.30;67.38;97818.50;5075320;28;42079;-81
2023/03/11 03:48:03;;;;;;;0.70;0.70;;;;;;;3.28;67.61;97820.34;5075610;28;43311;-83
2023/03/11 03:50:35;;;;;;;1.13;0.73;;;;;;;3.03;67.77;97795.41;5075371;28;42034;-83
2023/03/11 03:53:03;;;;;;;2.90;1.00;;;;;;;3.29;67.96;97832.50;5075317;28;38958;-83
2023/03/11 03:55:33;;;;;;;1.50;0.80;;;;;;;3.39;67.24;97852.03;5075157;28;40838;-84
2023/03/11 03:58:01;;;;;;;1.30;0.90;;;;;;;3.38;67.44;97858.19;5091895;28;41448;-85
2023/03/11 04:00:34;;;;;;;4.00;0.97;;;;;;;3.24;67.53;97846.66;5075053;28;42360;-84
2023/03/11 04:03:03;;;;;;;3.53;1.03;;;;;;;3.31;67.94;97862.91;5075106;28;38624;-84
2023/03/11 04:05:44;;;;;;;1.00;0.90;;;;;;;3.23;67.62;97850.19;5074893;28;40483;-83
2023/03/11 04:08:14;;;;;;;1.90;0.93;;;;;;;3.38;66.91;97884.38;5075240;28;41803;-83
2023/03/11 04:10:42;;;;;;;1.10;0.87;;;;;;;3.38;66.68;97879.13;5074703;28;41469;-84
2023/03/11 04:13:09;;;;;;;1.50;0.70;;;;;;;3.49;67.18;97897.78;5075349;28;39808;-84
2023/03/11 04:15:38;;;;;;;3.10;1.30;;;;;;;3.46;66.82;97898.75;5074769;28;41138;-83
2023/03/11 04:18:06;;;;;;;1.13;0.90;;;;;;;3.37;66.53;97880.91;5074811;28;43349;-82
2023/03/11 04:20:34;;;;;;;2.50;1.00;;;;;;;3.44;66.51;97895.41;5074521;28;41198;-83
2023/03/11 04:23:03;;;;;;;1.63;0.70;;;;;;;3.31;66.71;97862.91;5075099;28;39709;-83
2023/03/11 04:25:33;;;;;;;3.47;1.10;;;;;;;3.39;66.54;97880.84;5074763;28;40698;-83
2023/03/11 04:28:01;;;;;;;1.53;0.90;;;;;;;3.46;67.04;97892.72;5074884;28;42026;-83
2023/03/11 04:30:30;;;;;;;1.93;1.17;;;;;;;3.24;67.38;97864.97;5074600;28;41191;-84
2023/03/11 04:32:58;;;;;;;2.17;1.00;;;;;;;3.27;66.89;97873.59;5074819;28;38754;-83
2023/03/11 04:35:26;;;;;;;2.47;1.10;;;;;;;3.21;66.78;97857.25;5074335;28;40740;-83
2023/03/11 04:37:54;;;;;;;2.43;0.90;;;;;;;3.29;67.22;97893.53;5075102;28;41408;-83
2023/03/11 04:40:24;;;;;;;2.07;1.00;;;;;;;3.12;67.37;97878.63;5078022;28;41293;-83
2023/03/11 04:42:53;;;;;;;1.00;1.00;;;;;;;3.12;67.80;97889.09;5078265;28;39008;-83
2023/03/11 04:45:21;;;;;;;1.43;0.80;;;;;;;2.88;68.00;97843.19;5077837;28;40672;-83
2023/03/11 04:47:51;;;;;;;3.50;1.10;;;;;;;3.21;67.94;97898.28;5078178;28;42441;-83
2023/03/11 04:50:20;;;;;;;1.90;1.10;;;;;;;3.11;67.87;97882.16;5077748;28;40914;-84
2023/03/11 04:52:48;;;;;;;2.63;1.10;;;;;;;3.20;68.32;97891.38;5078076;28;38740;-84
2023/03/11 04:55:16;;;;;;;1.30;1.00;;;;;;;3.17;68.12;97894.13;5077764;28;43143;-83
2023/03/11 04:57:46;;;;;;;1.93;1.40;;;;;;;3.10;68.26;97890.94;5078093;28;41782;-84
2023/03/11 05:00:18;;;;;;;3.07;1.17;;;;;;;3.06;67.64;97894.63;5093121;28;43446;-83
2023/03/11 05:02:49;;;;;;;1.60;1.03;;;;;;;3.10;68.21;97911.84;5078331;28;40171;-83
2023/03/11 05:05:19;;;;;;;1.53;1.13;;;;;;;2.83;68.50;97868.75;5077917;28;40583;-83
2023/03/11 05:07:47;;;;;;;2.07;1.20;;;;;;;2.85;69.00;97899.09;5077987;28;43073;-83
2023/03/11 05:10:21;;;;;;;2.83;1.10;;;;;;;2.74;69.01;97890.06;5082301;28;41262;-83
2023/03/11 05:12:51;;;;;;;1.23;1.00;;;;;;;2.90;69.10;97922.41;5099293;28;41190;-84
2023/03/11 05:15:19;;;;;;;2.60;1.33;;;;;;;2.80;69.49;97902.84;5082945;28;40577;-83
2023/03/11 05:17:48;;;;;;;1.20;1.07;;;;;;;2.93;69.71;97930.13;5078318;28;43234;-84
2023/03/11 05:20:16;;;;;;;1.20;1.10;;;;;;;2.91;69.32;97931.13;5077696;28;42135;-84
2023/03/11 05:22:43;;;;;;;3.90;1.60;;;;;;;2.82;69.74;97927.16;5094722;28;40027;-84
2023/03/11 05:25:13;;;;;;;2.60;1.10;;;;;;;2.89;69.42;97928.56;5078236;28;40666;-83
2023/03/11 05:27:41;;;;;;;2.37;1.60;;;;;;;3.06;69.31;97952.19;5077948;28;42742;-84
2023/03/11 05:30:12;;;;;;;4.20;1.43;;;;;;;3.11;69.03;97949.31;5077649;28;41071;-83
2023/03/11 05:32:42;;;;;;;2.40;1.30;;;;;;;3.04;69.48;97927.84;5077714;28;38762;-83
2023/03/11 05:35:09;;;;;;;4.00;1.37;;;;;;;3.01;69.80;97927.16;5077488;28;40851;-83
2023/03/11 05:37:38;;;;;;;2.90;1.33;;;;;;;3.00;69.79;97936.75;5078282;28;42138;-84
2023/03/11 05:40:08;;;;;;;1.40;1.10;;;;;;;3.11;70.01;97949.31;5077482;28;40837;-84
2023/03/11 05:42:40;;;;;;;2.90;1.23;;;;;;;3.15;69.70;97958.75;5077731;28;38871;-83
2023/03/11 05:45:12;;;;;;;1.87;1.37;;;;;;;3.17;69.89;97968.22;5077453;28;41868;-84
2023/03/11 05:47:42;;;;;;;3.20;1.20;;;;;;;3.13;69.46;97964.03;5077555;28;41658;-84
2023/03/11 05:50:13;;;;;;;3.43;1.37;;;;;;;2.90;69.53;97919.81;5093234;28;41798;-84
2023/03/11 05:52:42;;;;;;;3.03;1.10;;;;;;;3.14;69.67;97964.88;5078117;28;38892;-84
2023/03/11 05:55:13;;;;;;;1.37;1.10;;;;;;;3.14;69.53;97978.81;5077127;28;40786;-84
2023/03/11 05:57:43;;;;;;;1.57;1.47;;;;;;;3.01;69.60;97953.28;5077521;28;42820;-83
2023/03/11 06:00:14;;;;;;;4.03;1.20;;;;;;;3.18;70.10;97983.00;5077148;28;41226;-83
2023/03/11 06:02:43;;;;;;;2.20;1.57;;;;;;;3.20;69.73;97973.31;5077914;28;39338;-84
2023/03/11 06:05:14;;;;;;;3.50;1.20;;;;;;;3.12;69.90;97967.56;5091742;28;41541;-84
2023/03/11 06:07:44;;;;;;;4.97;1.23;;;;;;;3.25;69.72;97984.38;5093854;28;42499;-83
2023/03/11 06:10:12;;;;;;;2.40;1.20;;;;;;;2.82;69.57;97911.47;5076902;28;42526;-84
2023/03/11 06:12:41;;;;;;;3.17;1.30;;;;;;;3.26;69.50;97980.00;5077515;28;38966;-84
2023/03/11 06:15:19;;;;;;;4.93;1.30;;;;;;;3.41;69.61;97994.13;5077433;28;41240;-83
2023/03/11 06:17:46;;;;;;;1.90;1.30;;;;;;;3.42;69.34;97995.84;5076962;28;43177;-84
2023/03/11 06:20:14;;;;;;;3.37;1.20;;;;;;;3.25;69.29;97979.16;5076911;28;41007;-84
2023/03/11 06:22:43;;;;;;;2.57;1.50;;;;;;;3.30;69.51;97992.03;5077258;28;40140;-83
2023/03/11 06:25:11;;;;;;;1.80;1.20;;;;;;;3.12;69.90;97983.25;5076700;28;41976;-83
2023/03/11 06:27:43;;;;;;;3.47;1.50;;;;;;;3.19;69.93;98002.16;5076981;28;41547;-84
2023/03/11 06:30:13;;;;;;;1.50;1.10;;;;;;;3.15;69.94;97998.81;5076893;28;42058;-84
2023/03/11 06:32:49;;;;;;;3.97;1.60;;;;;;;3.01;70.22;97984.69;5077296;28;38969;-84
2023/03/11 06:35:17;;;;;;;1.67;1.33;;;;;;;3.05;70.07;97997.56;5076447;28;40519;-83
2023/03/11 06:37:45;;;;;;;2.07;1.53;;;;;;;2.99;70.23;97987.34;5076914;28;41823;-84
2023/03/11 06:40:14;;;;;;;3.87;1.77;;;;;;;3.31;70.24;98029.50;5076663;28;40937;-83
2023/03/11 06:42:42;;;;;;;3.33;1.50;;;;;;;3.43;70.01;98010.63;5076926;28;38889;-83
2023/03/11 06:45:12;;;;;;;2.43;1.43;;;;;;;3.80;68.94;98034.13;5076674;28;40752;-84
2023/03/11 06:47:41;;;;;;;1.77;1.20;;;;;;;4.01;68.59;98020.88;5076730;28;41780;-83
2023/03/11 06:50:13;;;;;;;3.43;1.50;;;;;;;4.29;67.97;98019.44;5076218;28;41517;-84
2023/03/11 06:52:40;;;;;;;3.30;1.47;;;;;;;4.63;67.52;98036.06;5059966;28;39102;-84
2023/03/11 06:55:10;;;;;;;3.30;1.43;;;;;;;4.81;66.29;98042.13;5093395;28;42488;-85
2023/03/11 06:57:38;;;;;;;3.27;1.30;;;;;;;5.07;64.94;98057.31;5093378;28;42943;-84
2023/03/11 07:00:12;;;;;;;4.40;1.37;;;;;;;5.45;64.28;98051.78;5076871;28;42181;-84
2023/03/11 07:02:41;;;;;;;3.17;1.43;;;;;;;5.73;62.89;98059.84;5075698;28;39184;-85
2023/03/11 07:05:11;;;;;;;3.83;1.50;;;;;;;5.91;62.39;98071.16;5075971;28;40944;-84
2023/03/11 07:07:40;;;;;;;2.07;1.00;;;;;;;5.91;62.04;98072.00;5076241;28;42094;-85
2023/03/11 07:10:09;;;;;;;2.93;1.30;;;;;;;6.01;61.27;98096.81;5076163;28;42206;-84
2023/03/11 07:12:37;;;;;;;3.43;1.77;;;;;;;6.00;61.34;98086.38;5075999;28;38791;-85
2023/03/11 07:15:06;;;;;;;2.87;1.37;;;;;;;6.13;61.37;98077.72;5076053;28;40814;-84
2023/03/11 07:17:35;;;;;;;3.73;1.20;;;;;;;6.68;60.55;98090.28;5076060;28;41567;-85
2023/03/11 07:20:04;;;;;;;2.53;1.37;;;;;;;7.83;57.60;98124.47;5075902;28;42300;-84
2023/03/11 07:22:32;;;;;;;1.80;1.33;;;;;;;10.05;53.71;98137.63;5075821;28;40108;-85
2023/03/11 07:25:01;;;;;;;2.27;1.40;;;;;;;12.71;48.18;98171.91;5075687;28;40781;-85
2023/03/11 07:27:29;;;;;;;2.73;1.40;;;;;;;13.21;46.15;98173.91;5075880;28;42250;-85
2023/03/11 07:29:57;;;;;;;1.20;1.00;;;;;;;14.91;43.79;98181.19;5075545;28;41150;-85
2023/03/11 07:32:24;;;;;;;3.07;1.37;;;;;;;15.89;40.24;98211.16;5076109;28;39865;-86
2023/03/11 07:34:52;;;;;;;1.77;1.13;;;;;;;15.68;38.15;98222.03;5075751;28;40530;-85
2023/03/11 07:37:20;;;;;;;2.30;1.17;;;;;;;15.30;38.59;98228.22;5075749;28;41790;-85
2023/03/11 07:39:48;;;;;;;2.50;1.20;;;;;;;14.35;39.34;98227.00;5075535;28;41030;-86
2023/03/11 07:42:17;;;;;;;2.97;1.20;;;;;;;13.94;39.65;98210.19;5075909;28;38975;-85
2023/03/11 07:44:50;;;;;;;2.23;1.20;;;;;;;13.79;39.84;98222.13;5075317;28;42048;-85
2023/03/11 07:47:18;;;;;;;1.40;1.23;;;;;;;13.87;40.34;98216.16;5075560;28;41670;-85
2023/03/11 07:49:46;;;;;;;1.50;1.40;;;;;;;13.78;40.23;98236.41;5075343;28;42321;-85
2023/03/11 07:52:14;;;;;;;3.23;1.50;;;;;;;13.32;39.96;98225.31;5075783;28;38613;-85
2023/03/11 07:54:44;;;;;;;1.63;1.10;;;;;;;12.50;41.52;98220.47;5075213;28;42847;-85
2023/03/11 07:57:16;;;;;;;1.70;1.10;;;;;;;11.97;42.70;98211.47;5075555;28;42058;-85
2023/03/11 07:59:45;;;;;;;1.27;1.03;;;;;;;11.56;42.41;98201.38;5099016;28;42670;-86
2023/03/11 08:02:13;;;;;;;2.07;1.43;;;;;;;11.33;42.25;98236.75;5087236;28;38875;-85
2023/03/11 08:04:41;;;;;;;5.93;1.40;;;;;;;10.73;43.40;98219.16;5075618;28;41392;-86
2023/03/11 08:07:09;;;;;;;2.60;1.60;;;;;;;10.68;42.99;98227.44;5075632;28;43255;-85
2023/03/11 08:09:37;;;;;;;2.50;1.37;;;;;;;10.34;44.05;98223.75;5075052;28;41295;-85
2023/03/11 08:12:05;;;;;;;1.43;1.10;;;;;;;10.02;44.60;98241.84;5075313;28;39178;-86
2023/03/11 08:14:33;;;;;;;4.17;1.30;;;;;;;9.79;45.22;98233.81;5074384;28;40825;-85
2023/03/11 08:17:02;;;;;;;1.23;1.13;;;;;;;9.65;44.98;98238.25;5091656;28;42910;-86
2023/03/11 08:19:30;;;;;;;1.53;1.10;;;;;;;11.25;43.89;98257.72;5092398;28;42460;-85
2023/03/11 08:21:58;;;;;;;3.33;1.20;;;;;;;13.88;40.85;98274.56;5074707;28;40263;-85
2023/03/11 08:24:27;;;;;;;2.00;1.20;;;;;;;13.80;39.31;98274.41;5075846;28;20223;-85
2023/03/11 08:26:55;;;;;;;1.77;1.10;;;;;;;16.46;37.34;98276.03;5074605;28;42897;-85
2023/03/11 08:29:23;;;;;;;1.93;1.10;;;;;;;19.09;33.67;98313.66;5074996;28;41237;-86
2023/03/11 08:31:51;;;;;;;1.17;1.00;;;;;;;19.89;31.17;98314.84;5074835;28;38973;-83
2023/03/11 08:34:21;;;;;;;2.10;0.93;;;;;;;19.54;30.53;98334.78;5074980;28;40541;-86
2023/03/11 08:36:49;;;;;;;0.80;0.77;;;;;;;17.94;30.89;98329.22;5074277;28;42887;-86
2023/03/11 08:39:17;;;;;;;2.37;1.00;;;;;;;17.07;33.35;98316.44;5074598;28;42210;-84
2023/03/11 08:41:44;;;;;;;1.97;1.00;;;;;;;16.21;33.04;98306.09;5074559;28;38734;-85
2023/03/11 08:44:12;;;;;;;1.40;0.80;;;;;;;15.28;33.95;98320.03;5074502;28;40743;-84
2023/03/11 08:46:40;;;;;;;1.47;0.90;;;;;;;14.89;34.00;98309.28;5074054;28;41755;-85
2023/03/11 08:49:08;;;;;;;2.40;1.30;;;;;;;16.30;32.40;98323.94;5074582;28;42224;-85
2023/03/11 08:51:38;;;;;;;0.83;0.80;;;;;;;15.53;32.80;98323.97;5074345;28;39060;-85
2023/03/11 08:54:06;;;;;;;2.63;1.60;;;;;;;14.76;33.94;98321.16;5074329;28;40687;-84
2023/03/11 08:56:33;;;;;;;1.83;1.30;;;;;;;15.28;33.99;98315.53;5074329;28;42014;-85
2023/03/11 08:59:01;;;;;;;2.17;0.83;;;;;;;15.98;33.35;98314.44;5074128;28;41015;-85
2023/03/11 09:01:29;;;;;;;2.03;1.60;;;;;;;17.08;32.27;98331.50;5074107;28;38869;-85
2023/03/11 09:03:57;;;;;;;1.10;0.93;;;;;;;19.92;29.07;98341.38;5074244;28;40365;-85
2023/03/11 09:06:25;;;;;;;1.53;1.07;;;;;;;21.61;27.17;98326.81;5073752;28;41927;-85
2023/03/11 09:08:54;;;;;;;1.50;0.90;;;;;;;22.07;25.75;98368.13;5074335;28;41390;-84
2023/03/11 09:11:22;;;;;;;1.57;1.20;;;;;;;21.28;25.21;98378.16;5073995;28;40022;-85
2023/03/11 09:13:50;;;;;;;0.83;0.83;;;;;;;19.75;26.57;98371.09;5074588;28;40677;-85
2023/03/11 09:16:20;;;;;;;1.30;0.83;;;;;;;18.38;28.31;98386.34;5074084;28;41404;-86
2023/03/11 09:18:49;;;;;;;2.63;0.80;;;;;;;17.02;28.98;98382.09;5074059;28;41193;-85
2023/03/11 09:21:17;;;;;;;2.30;1.13;;;;;;;16.03;30.58;98354.91;5072903;28;39146;-85
2023/03/11 09:23:45;;;;;;;2.00;1.10;;;;;;;15.57;31.20;98352.97;5074221;28;41169;-86
2023/03/11 09:26:15;;;;;;;1.97;1.00;;;;;;;15.37;31.58;98354.72;5076270;28;42952;-84
2023/03/11 09:28:47;;;;;;;3.27;1.43;;;;;;;15.07;31.75;98357.47;5077400;28;41281;-85
2023/03/11 09:31:15;;;;;;;1.17;0.90;;;;;;;14.46;32.15;98352.19;5077752;28;39172;-84
2023/03/11 09:33:44;;;;;;;1.63;1.20;;;;;;;14.09;33.02;98356.28;5077798;28;40802;-85
2023/03/11 09:36:14;;;;;;;2.93;1.00;;;;;;;13.69;33.71;98356.94;5077379;28;41826;-85
2023/03/11 09:38:42;;;;;;;2.43;1.10;;;;;;;13.39;34.25;98359.47;5077972;28;41261;-86
2023/03/11 09:41:22;;;;;;;1.60;0.93;;;;;;;13.15;34.91;98352.53;5077457;28;40624;-85
2023/03/11 09:44:04;;;;;;;2.43;1.10;;;;;;;12.76;34.98;98347.72;5078033;28;41028;-86
2023/03/11 09:47:09;;;;;;;2.00;1.00;;;;;;;12.49;35.46;98348.06;5077396;28;41715;-85
2023/03/11 09:49:58;;;;;;;2.40;1.30;;;;;;;12.09;36.06;98334.41;5094237;28;43091;-84
2023/03/11 09:52:33;;;;;;;2.60;1.37;;;;;;;11.85;37.02;98355.69;5077666;28;40213;-84
2023/03/11 09:55:06;;;;;;;1.27;0.97;;;;;;;11.55;38.01;98342.88;5094521;28;40883;-84
2023/03/11 09:57:37;;;;;;;1.60;1.10;;;;;;;11.42;38.60;98353.56;5077635;28;41692;-85
2023/03/11 10:00:07;;;;;;;3.47;1.10;;;;;;;11.27;39.17;98351.19;5076979;28;41491;-84
2023/03/11 10:02:41;;;;;;;1.93;1.10;;;;;;;10.86;39.32;98317.13;5091438;28;40012;-85
2023/03/11 10:05:17;;;;;;;1.57;1.30;;;;;;;10.94;39.52;98351.84;5076857;28;40788;-84
2023/03/11 10:07:53;;;;;;;1.40;1.10;;;;;;;10.80;40.21;98321.03;5077080;28;42191;-84
2023/03/11 10:10:22;;;;;;;1.97;1.20;;;;;;;11.03;40.15;98329.97;5076784;28;41337;-84
2023/03/11 10:12:59;;;;;;;2.37;1.10;;;;;;;11.28;39.39;98344.94;5076955;28;38732;-84
2023/03/11 10:15:39;;;;;;;1.53;1.20;;;;;;;12.48;38.99;98341.94;5076750;28;41053;-83
2023/03/11 10:18:24;;;;;;;2.50;1.50;;;;;;;12.56;37.86;98350.13;5080575;28;42302;-85
2023/03/11 10:20:58;;;;;;;2.10;1.30;;;;;;;12.32;37.17;98362.69;5076008;28;41266;-85
2023/03/11 10:23:32;;;;;;;3.07;1.50;;;;;;;12.06;39.08;98345.25;5076915;28;39103;-85
2023/03/11 10:26:12;;;;;;;1.27;1.00;;;;;;;11.82;38.70;98343.50;5076272;28;40934;-84
2023/03/11 10:28:47;;;;;;;1.57;1.10;;;;;;;11.47;38.33;98339.97;5076846;28;42023;-85
2023/03/11 10:31:22;;;;;;;2.60;1.10;;;;;;;11.11;39.02;98332.94;5092565;28;43645;-84
2023/03/11 10:33:55;;;;;;;1.67;1.23;;;;;;;10.80;39.12;98348.38;5076522;28;39227;-85
2023/03/11 10:36:26;;;;;;;1.20;1.10;;;;;;;10.33;38.88;98327.06;5076066;28;40478;-85
2023/03/11 10:38:56;;;;;;;1.63;1.20;;;;;;;10.04;40.09;98339.63;5076448;28;42406;-85
2023/03/11 10:41:29;;;;;;;2.73;1.10;;;;;;;9.72;40.41;98316.22;5093233;28;42804;-85
2023/03/11 10:44:04;;;;;;;3.23;1.60;;;;;;;9.25;41.51;98273.63;5078727;28;40114;-84
2023/03/11 10:46:32;;;;;;;1.10;1.00;;;;;;;9.52;41.60;98353.69;5078852;28;40487;-84
2023/03/11 10:48:59;;;;;;;1.80;1.20;;;;;;;9.02;41.73;98279.59;5097495;28;42753;-83
2023/03/11 10:51:34;;;;;;;2.40;1.00;;;;;;;9.29;41.61;98330.59;5079961;28;42453;-86
2023/03/11 10:54:03;;;;;;;2.17;1.10;;;;;;;9.46;41.17;98327.69;5077779;28;38782;-85
2023/03/11 10:56:33;;;;;;;2.33;1.20;;;;;;;9.81;41.71;98345.63;5076547;28;42476;-85
2023/03/11 10:59:04;;;;;;;3.23;1.37;;;;;;;10.04;41.76;98337.81;5077113;28;42096;-84
2023/03/11 11:01:32;;;;;;;1.23;1.13;;;;;;;10.30;41.96;98327.28;5077529;28;42611;-85
2023/03/11 11:04:02;;;;;;;4.33;1.40;;;;;;;10.80;40.61;98336.94;5076790;28;39006;-84
2023/03/11 11:06:32;;;;;;;1.33;0.97;;;;;;;11.41;39.23;98356.31;5076145;28;40693;-84
2023/03/11 11:09:15;;;;;;;1.07;1.07;;;;;;;11.56;37.60;98354.34;5076219;28;42923;-84
2023/03/11 11:11:44;;;;;;;1.20;1.10;;;;;;;11.42;37.73;98363.31;5076808;28;42249;-84
2023/03/11 11:14:13;;;;;;;1.53;1.10;;;;;;;11.10;38.16;98358.56;5076447;28;38669;-84
2023/03/11 11:16:41;;;;;;;1.10;0.90;;;;;;;10.84;38.41;98367.56;5076154;28;41755;-84
2023/03/11 11:19:12;;;;;;;1.37;1.00;;;;;;;10.61;39.06;98365.69;5076196;28;41873;-84
2023/03/11 11:21:43;;;;;;;2.10;1.03;;;;;;;10.25;39.50;98351.44;5075382;28;41595;-84
2023/03/11 11:24:17;;;;;;;1.07;0.90;;;;;;;10.11;39.93;98355.94;5076262;28;40164;-84
2023/03/11 11:27:04;;;;;;;2.13;1.30;;;;;;;9.99;41.23;98344.41;5075711;28;42697;-84
2023/03/11 11:29:34;;;;;;;2.10;1.33;;;;;;;9.81;41.05;98337.69;5075962;28;41402;-83
2023/03/11 11:32:17;;;;;;;2.30;1.20;;;;;;;9.72;40.75;98342.66;5076085;28;42306;-84
2023/03/11 11:34:57;;;;;;;1.07;1.00;;;;;;;9.64;39.49;98341.50;5075739;28;38722;-85
2023/03/11 11:37:30;;;;;;;2.10;0.93;;;;;;;9.70;40.30;98367.50;5076549;28;40226;-85
2023/03/11 11:40:01;;;;;;;2.03;0.80;;;;;;;9.66;39.75;98372.13;5076050;28;41822;-85
2023/03/11 11:42:31;;;;;;;1.60;1.00;;;;;;;9.56;39.69;98355.19;5075450;28;41202;-85
2023/03/11 11:45:06;;;;;;;1.70;1.17;;;;;;;9.42;38.95;98357.91;5075920;28;39896;-84
2023/03/11 11:47:36;;;;;;;1.10;1.00;;;;;;;9.41;39.84;98361.50;5075022;28;40732;-85
2023/03/11 11:50:11;;;;;;;2.00;1.10;;;;;;;9.33;41.06;98366.44;5075110;28;42867;-86
2023/03/11 11:52:44;;;;;;;2.00;0.90;;;;;;;9.18;40.88;98364.78;5075923;28;41275;-84